Lietadlo (typ, imatrikulačný znak): _________________/__________________
Meno pilota (skontroloval): ___________________________________
Podpis pilota (skontroloval): ___________________________________

Predpoveď na dnes

Oblačno až zamračené, hmlisto. Miestami, najmä na strednom na Slovensku aj zmenšená oblačnosť. Výnimočne slabé sneženie. Najvyššia denná teplota -2 až +3, v dolinách ojedinele okolo -4 st. Teplota na horách vo výške 1500 m okolo -7 st. Bezvetrie alebo slabý, v Zemplíne, Above a Šariši prevažne severný vietor 2 až 6 m/s (5 až 20 km/h). Predpokladané množstvo zrážok: do 0,5 mm / do 1 cm snehu

SHMÚ, OMPaV, JP 14.12.2018 04:55 SEČ

METAR - Letisková meteo správa

Letisková meteorologická správa METAR

Meteorologické informácie z ďalších profesionálnych meteorologických staníc SHMÚ zobrazené v tvare zodpovedajúcom pravidlám kódovania správ METAR sú uvedené v položke „METSYN Informácie o správe METAR

14.12.2018 - 09:30 UTC

METAR LZIB 140930Z 05004KT 8000 FEW008 SCT022 BKN029 M01/M05 Q1023
 NOSIG=
 METAR LZKZ 140930Z 01013KT 9999 BKN019 M00/M04 Q1022 NOSIG=
 METAR LZPP 140930Z 01006KT 9999 FEW040 M03/M06 Q1023=
 METAR LZSL 140930Z VRB01KT 7000 BKN028 M07/M09 Q1023=
 METAR LZTT 140930Z 07006KT 9999 BKN009 OVC015 M03/M06 Q1020 NOSIG=
 METAR LZZI 140930Z 08006KT 8000 SCT033 M05/M07 Q1022=
 

14.12.2018 - 09:00 UTC

METAR LZIB 140900Z 09005KT 7000 FEW008 BKN027 M02/M04 Q1023 NOSIG=
 METAR LZKZ 140900Z 02014KT 9999 BKN022 M00/M05 Q1022 NOSIG=
 METAR LZPP 140900Z 01005KT 9999 FEW040 M04/M06 Q1023=
 METAR LZSL 140900Z VRB01KT 7000 BKN028 M07/M09 Q1023=
 METAR LZTT 140900Z 07008KT 9999 BKN010 OVC016 M03/M06 Q1020 NOSIG=
 METAR LZZI 140900Z 10004KT 9999 FEW040 M06/M08 Q1022=
 

14.12.2018 - 09:00 UTC

METAR LZMC 140900Z 36001KT 6000 SCT007 BKN008 M03/M04
 Q1023=
 METAR LZPW 140900Z 04010KT 9999 FEW010 OVC016 M02/M04
 Q1022=
 

TAF - Letisková predpoveď

14.12.2018 - 05:00 UTC

TAF AMD LZTT 140913Z 1409/1506 07007KT 9999 BKN017 OVC025
     PROB40 1409/1416 BKN008 OVC017
     BECMG 1409/1411 11005KT
     BECMG 1416/1418 BKN008 OVC017
     TEMPO 1418/1506 VRB02KT 2300 BR BKN004 OVC011=
 

14.12.2018 - 08:00 UTC

TAF COR LZZI 140800Z 1409/1418 12006KT 9999 FEW040
     BECMG 1414/1416 04003KT
     BECMG 1416/1418 3500 BR SCT004=
 

14.12.2018 - 08:00 UTC

TAF LZSL 140800Z 1409/1418 VRB02KT 7000 BKN025
     TEMPO 1409/1411 9999 FEW023
     TEMPO 1416/1418 4000 BR SCT004 BKN025=
 TAF LZPP 140800Z 1409/1418 04005KT 7000 FEW004
     TEMPO 1409/1415 CAVOK
     BECMG 1416/1418 VRB02KT 3500 BR BKN004=
 

14.12.2018 - 05:00 UTC

TAF AMD LZSL 140737Z 1407/1415 VRB02KT 7000 BKN025
     TEMPO 1407/1408 3500 BR SCT004 BKN025
     BECMG 1409/1411 9999 SCT023=
 TAF AMD LZPP 140737Z 1407/1415 02005KT 7000 SCT004
     TEMPO 1407/1408 VRB02KT 3500 BR BKN004
     TEMPO 1409/1415 CAVOK=
 

14.12.2018 - 05:00 UTC

TAF LZIB 140500Z 1406/1506 05006KT 6000 OVC009
     TEMPO 1406/1408 2300 BR SCT003 OVC006
     PROB30 TEMPO 1406/1407 VRB02KT 0600 FZFG BKN002
     BECMG 1410/1412 9999 FEW012 BKN020
     BECMG 1414/1416 33006KT
     TEMPO 1421/1506 5000 -SN SCT011 OVC040 =
 TAF LZKZ 140500Z 1406/1506 02010KT 9999 OVC027
     BECMG 1408/1410 SCT035 SCT100
     TEMPO 1410/1500 01013G25KT
     BECMG 1411/1413 CAVOK
     TEMPO 1500/1506 01017G30KT=
 TAF LZTT 140500Z 1406/1506 25006KT 9999 BKN023
     TEMPO 1406/1408 VRB02KT 5000 BR FEW006 OVC017
     BECMG 1409/1411 11005KT SCT035 BKN090
     BECMG 1418/1420 FEW026 SCT100
     TEMPO 1422/1506 VRB02KT 2300 BR SCT005 BKN011=
 

14.12.2018 - 05:00 UTC

TAF LZSL 140500Z 1406/1415 VRB02KT 6000 SCT004 BKN011
     TEMPO 1406/1408 2200 BR BKN003
     PROB30 TEMPO 1406/1407 0700 FZFG OVC002
     BECMG 1409/1411 9999 SCT023=
 TAF LZPP 140500Z 1406/1415 02005KT 4000 BR SCT004 OVC008
     TEMPO 1406/1408 VRB02KT 1500 BCFG BKN003
     BECMG 1410/1412 7000 BKN013
     BECMG 1412/1414 9999 FEW020 BKN090=
 TAF LZZI 140500Z 1406/1415 12006KT 7000 SCT015
     TEMPO 1406/1408 VRB02KT 2300 BR SCT004 BKN009
     BECMG 1410/1412 9999 FEW025 SCT100=
 

14.12.2018 - 02:00 UTC

TAF LZSL 140200Z 1403/1412 VRB02KT 6000 SCT004 BKN009
     TEMPO 1403/1408 2200 BR BKN003
     PROB40 TEMPO 1403/1407 0700 FZFG OVC002
     BECMG 1410/1412 9999 BKN018=
 TAF LZZI 140200Z 1403/1412 VRB02KT 4000 BR SCT006 BKN010
     TEMPO 1403/1407 1200 BR BKN003
     PROB40 TEMPO 1403/1406 0400 FZFG OVC001
     BECMG 1409/1411 9999 SCT020=